Decoded Metar for CYIN ( in ) (IATA:) | Meteo·Mobile Aviation Weather
aviador You're here:

CYIN Decoded Metar

in
Report Time2018-09-23 12:00:00
UTC Time2018-09-23 12:53:45
Flight Rules mvfr MVFR
Wind320° at 04 kt
W.Decomp.*RWY 29: 3.5 kt HW 2.0 kt RCW
W.Rank320° ranks 7
Current wind is below 320° avg. (7.9)
Visibility9999 m
Phenomena:N/A
Clouds:Overcast 025 Hf
Expected CloudBase > 800 ft AGL from Temp-Dew spread
Ceiling2,500 ft
Temp04°C
Dew Point02°C (87% RH)
AAT0.9°C
QNH1016 hPa
Raw Report
METAR CYIN 231200Z AUTO 32004KT 9SM OVC025 04/02 A3001 RMK SLP184=

Extra information for CYIN:More info

Social comments